Time;durP1;ratioP1;P1;durP2;ratioP2;P2;SDS_P1;SDS_P2;PMS_P1;PMS_P2;Temp;Humidity;BMP_temperature;BMP_pressure;BME280_temperature;BME280_humidity;BME280_pressure;Samples;Min_cycle;Max_cycle;Signal;HPM_P1;HPM_P2
2021/12/02 00:00:15;;;;;;;4.60;2.03;;;3.80;99.90;;;;;;5012066;28;20053;-80
2021/12/02 00:02:47;;;;;;;;;;;3.70;99.90;;;;;;5009667;28;20072;-81
2021/12/02 00:05:28;;;;;;;11.23;2.95;;;3.70;99.90;;;;;;5009035;28;19926;-79
2021/12/02 00:08:03;;;;;;;14.95;3.47;;;3.70;99.90;;;;;;5023551;28;20053;-78
2021/12/02 00:10:35;;;;;;;4.80;2.85;;;3.70;99.90;;;;;;5028185;28;20069;-79
2021/12/02 00:14:21;;;;;;;5.32;2.10;;;3.70;99.90;;;;;;5018878;28;20053;-81
2021/12/02 00:16:37;;;;;;;5.13;2.05;;;3.70;99.90;;;;;;5021315;28;20058;-79
2021/12/02 00:22:07;;;;;;;4.32;2.63;;;3.70;99.90;;;;;;5025561;28;20129;-78
2021/12/02 00:24:57;;;;;;;16.17;3.15;;;3.60;99.90;;;;;;5027841;28;20060;-80
2021/12/02 00:27:41;;;;;;;8.30;2.85;;;3.60;99.90;;;;;;5024410;28;20045;-81
2021/12/02 00:30:13;;;;;;;8.90;2.33;;;3.70;99.90;;;;;;5025978;28;20049;-80
2021/12/02 00:32:44;;;;;;;17.80;3.28;;;3.60;99.90;;;;;;4992043;28;20062;-79
2021/12/02 00:35:37;;;;;;;;;;;;;;;;;;;;;
2021/12/02 00:38:29;;;;;;;20.15;2.72;;;3.70;99.90;;;;;;5025990;28;20050;-79
2021/12/02 00:41:00;;;;;;;8.73;3.10;;;3.60;99.90;;;;;;5019771;28;20038;-79
2021/12/02 00:43:36;;;;;;;7.78;2.97;;;3.60;99.90;;;;;;5024401;28;20061;-80
2021/12/02 00:46:12;;;;;;;5.47;3.00;;;3.50;99.90;;;;;;5023260;28;20045;-78
2021/12/02 00:48:42;;;;;;;4.53;2.45;;;3.50;99.90;;;;;;5023651;28;20526;-80
2021/12/02 00:51:11;;;;;;;12.38;2.58;;;3.50;99.90;;;;;;5008307;28;20060;-80
2021/12/02 00:53:44;;;;;;;7.65;2.97;;;3.60;99.90;;;;;;5023463;28;20056;-80
2021/12/02 00:56:27;;;;;;;3.80;2.45;;;3.70;99.90;;;;;;5010407;28;20057;-79
2021/12/02 00:58:57;;;;;;;5.32;2.40;;;5.20;99.90;;;;;;5008420;28;20054;-80
2021/12/02 01:01:38;;;;;;;8.43;2.83;;;3.40;99.90;;;;;;5006555;28;20041;-80
2021/12/02 01:04:26;;;;;;;7.97;3.28;;;3.40;99.90;;;;;;5025584;28;20064;-81
2021/12/02 01:06:56;;;;;;;17.60;4.40;;;3.50;99.90;;;;;;5023169;28;20054;-80
2021/12/02 01:09:47;;;;;;;12.75;2.85;;;3.30;99.90;;;;;;5003717;28;20052;-80
2021/12/02 01:12:17;;;;;;;8.73;2.67;;;3.30;99.90;;;;;;5004813;28;20058;-79
2021/12/02 01:14:45;;;;;;;4.07;2.97;;;3.30;99.90;;;;;;5040397;28;20041;-79
2021/12/02 01:17:14;;;;;;;8.13;3.10;;;3.30;99.90;;;;;;5009041;28;20050;-80
2021/12/02 01:19:50;;;;;;;11.27;3.95;;;3.30;99.90;;;;;;5009256;28;20049;-79
2021/12/02 01:22:20;;;;;;;8.55;2.65;;;3.30;99.90;;;;;;5016545;28;20050;-80
2021/12/02 01:24:51;;;;;;;5.00;2.63;;;3.20;99.90;;;;;;5006087;28;20054;-79
2021/12/02 01:27:23;;;;;;;5.22;2.60;;;3.30;99.90;;;;;;4996899;28;20060;-79
2021/12/02 01:29:53;;;;;;;2.83;2.13;;;3.30;99.90;;;;;;5023242;28;20042;-81
2021/12/02 01:32:27;;;;;;;7.13;3.53;;;3.20;99.90;;;;;;5022059;28;20054;-80
2021/12/02 01:35:07;;;;;;;16.17;3.08;;;3.20;99.90;;;;;;5022299;28;20052;-80
2021/12/02 01:37:53;;;;;;;4.28;2.00;;;3.30;99.90;;;;;;5016626;28;20049;-81
2021/12/02 01:40:34;;;;;;;4.43;2.17;;;1.50;99.90;;;;;;4999654;28;20045;-80
2021/12/02 01:43:09;;;;;;;13.93;2.95;;;3.20;99.90;;;;;;5033914;28;20744;-79
2021/12/02 01:45:40;;;;;;;13.70;5.15;;;3.10;99.90;;;;;;5013254;28;20057;-80
2021/12/02 01:48:19;;;;;;;3.93;2.67;;;3.20;99.90;;;;;;5004522;28;20050;-80
2021/12/02 01:51:01;;;;;;;4.85;2.20;;;3.10;99.90;;;;;;5021413;28;20315;-80
2021/12/02 01:53:41;;;;;;;;;;;3.10;99.90;;;;;;5007362;28;20049;-80
2021/12/02 01:56:16;;;;;;;4.35;2.63;;;3.00;99.90;;;;;;5022878;28;20082;-79
2021/12/02 01:58:51;;;;;;;14.63;3.95;;;3.10;99.90;;;;;;4987792;28;20061;-79
2021/12/02 02:01:26;;;;;;;5.72;2.83;;;3.00;99.90;;;;;;5014917;28;20058;-81
2021/12/02 02:04:14;;;;;;;6.40;2.83;;;3.30;99.90;;;;;;5005217;28;20370;-79
2021/12/02 02:07:00;;;;;;;8.27;2.70;;;1.60;99.90;;;;;;5017287;28;20367;-80
2021/12/02 02:09:31;;;;;;;10.48;3.10;;;3.00;99.90;;;;;;5005686;28;20073;-80
2021/12/02 02:12:09;;;;;;;4.13;2.08;;;3.00;99.90;;;;;;4988073;28;20057;-79
2021/12/02 02:14:39;;;;;;;6.47;2.40;;;3.00;99.90;;;;;;5011603;28;20049;-80
2021/12/02 02:17:26;;;;;;;5.57;2.78;;;3.10;99.90;;;;;;5034374;28;20049;-81
2021/12/02 02:19:55;;;;;;;6.35;2.83;;;3.00;99.90;;;;;;5022840;28;20050;-80
2021/12/02 02:22:24;;;;;;;6.90;2.30;;;3.00;99.90;;;;;;5021585;28;20046;-78
2021/12/02 02:24:53;;;;;;;8.95;3.92;;;1.80;99.90;;;;;;5024863;28;20060;-80
2021/12/02 02:27:24;;;;;;;9.90;3.47;;;2.90;99.90;;;;;;5023138;28;20054;-80
2021/12/02 02:29:57;;;;;;;4.28;2.38;;;2.90;99.90;;;;;;5025496;28;20046;-80
2021/12/02 02:32:33;;;;;;;7.47;2.85;;;2.60;99.90;;;;;;5025118;28;20352;-81
2021/12/02 02:35:07;;;;;;;7.80;2.67;;;2.90;99.90;;;;;;5025182;28;20338;-83
2021/12/02 02:38:09;;;;;;;8.30;2.95;;;2.90;99.90;;;;;;4999295;28;20054;-81
2021/12/02 02:41:01;;;;;;;4.10;2.40;;;3.00;99.90;;;;;;5033937;28;20046;-82
2021/12/02 02:44:27;;;;;;;12.38;2.55;;;3.90;99.90;;;;;;4950718;29;20054;-80
2021/12/02 02:47:06;;;;;;;7.00;2.70;;;3.10;99.90;;;;;;4932596;29;20161;-79
2021/12/02 02:49:36;;;;;;;8.52;4.63;;;3.10;99.90;;;;;;4938109;29;20055;-79
2021/12/02 02:52:07;;;;;;;11.65;2.60;;;3.10;99.90;;;;;;4952648;29;20062;-82
2021/12/02 02:55:03;;;;;;;8.32;5.10;;;3.10;99.90;;;;;;4951531;29;20055;-80
2021/12/02 02:57:41;;;;;;;13.20;3.42;;;3.20;99.90;;;;;;4951573;29;20051;-80
2021/12/02 03:00:29;;;;;;;5.95;2.38;;;3.20;99.90;;;;;;4985331;28;20319;-81
2021/12/02 03:05:52;;;;;;;7.80;2.47;;;1.60;99.90;;;;;;5020230;28;20130;-82
2021/12/02 03:08:49;;;;;;;10.15;3.95;;;3.20;99.90;;;;;;5009404;28;20054;-81
2021/12/02 03:11:47;;;;;;;7.07;2.22;;;4.80;99.90;;;;;;5001502;28;20058;-80
2021/12/02 03:14:26;;;;;;;9.93;2.75;;;3.20;99.90;;;;;;5021352;28;20056;-80
2021/12/02 03:17:33;;;;;;;10.38;2.60;;;3.20;99.90;;;;;;4997413;28;20060;-80
2021/12/02 03:20:15;;;;;;;5.28;2.97;;;3.20;99.90;;;;;;4993123;28;20054;-80
2021/12/02 03:22:59;;;;;;;;;;;;;;;;;;;;;
2021/12/02 03:25:49;;;;;;;9.63;3.08;;;3.20;99.90;;;;;;5011718;28;20058;-80
2021/12/02 03:28:30;;;;;;;9.52;2.13;;;3.30;99.90;;;;;;5025851;28;20053;-81
2021/12/02 03:31:02;;;;;;;3.22;2.42;;;3.10;99.90;;;;;;5025928;28;20042;-79
2021/12/02 03:33:54;;;;;;;4.57;2.15;;;3.20;99.90;;;;;;5027583;28;20065;-79
2021/12/02 03:36:27;;;;;;;8.15;3.75;;;3.20;99.90;;;;;;5026100;28;20042;-80
2021/12/02 03:39:07;;;;;;;;;;;3.20;99.90;;;;;;5013886;28;20050;-80
2021/12/02 03:41:36;;;;;;;8.18;2.90;;;3.40;99.90;;;;;;5027587;28;19944;-79
2021/12/02 03:44:13;;;;;;;9.60;3.70;;;3.20;99.90;;;;;;5011798;28;20049;-80
2021/12/02 03:46:42;;;;;;;15.35;2.90;;;3.40;99.90;;;;;;5010997;28;20050;-79
2021/12/02 03:49:11;;;;;;;9.50;2.88;;;3.20;99.90;;;;;;5009106;28;20060;-81
2021/12/02 03:51:50;;;;;;;3.83;1.80;;;3.20;99.90;;;;;;5018971;28;20045;-81
2021/12/02 03:54:22;;;;;;;5.10;3.33;;;3.20;99.90;;;;;;5025192;28;20046;-80
2021/12/02 03:57:38;;;;;;;5.35;2.58;;;3.60;99.90;;;;;;5024880;28;20061;-82
2021/12/02 04:00:19;;;;;;;6.05;1.98;;;3.20;99.90;;;;;;5010129;28;20050;-79
2021/12/02 04:03:47;;;;;;;;;;;;;;;;;;;;;
2021/12/02 04:06:40;;;;;;;5.55;3.08;;;3.30;99.90;;;;;;5024898;28;20046;-80
2021/12/02 04:09:52;;;;;;;5.70;3.65;;;3.40;99.90;;;;;;5011235;28;20046;-80
2021/12/02 04:18:45;;;;;;;6.00;2.13;;;3.20;99.90;;;;;;5022124;28;20348;-81
2021/12/02 04:22:06;;;;;;;4.53;2.00;;;3.50;99.90;;;;;;5030678;28;20050;-82
2021/12/02 04:24:38;;;;;;;3.00;2.20;;;3.20;99.90;;;;;;5028268;28;20064;-79
2021/12/02 04:27:07;;;;;;;2.80;2.50;;;3.30;99.90;;;;;;4995397;28;20057;-78
2021/12/02 04:29:43;;;;;;;9.77;2.50;;;3.30;99.90;;;;;;5010540;28;20049;-82
2021/12/02 04:32:27;;;;;;;6.50;1.92;;;4.20;99.90;;;;;;5010225;28;20068;-83
2021/12/02 04:35:02;;;;;;;;;;;4.90;99.90;;;;;;5009519;28;20054;-80
2021/12/02 04:38:17;;;;;;;6.38;2.17;;;3.20;99.90;;;;;;5019540;28;19922;-83
2021/12/02 04:41:13;;;;;;;4.68;2.80;;;3.40;99.90;;;;;;5021735;28;20049;-82
2021/12/02 04:43:41;;;;;;;7.30;3.00;;;3.30;99.90;;;;;;5028983;28;20058;-79
2021/12/02 04:46:17;;;;;;;6.15;3.85;;;3.30;99.90;;;;;;5027076;28;20046;-81
2021/12/02 04:49:13;;;;;;;9.02;2.10;;;3.10;99.90;;;;;;5014171;28;20054;-80
2021/12/02 04:51:52;;;;;;;5.47;2.75;;;3.30;99.90;;;;;;5008621;28;20056;-83
2021/12/02 04:54:20;;;;;;;4.50;2.38;;;2.80;99.90;;;;;;4998341;28;20054;-81
2021/12/02 04:56:59;;;;;;;9.95;2.95;;;3.40;99.90;;;;;;4991898;28;20058;-81
2021/12/02 04:59:47;;;;;;;16.83;4.22;;;4.90;99.90;;;;;;5015385;28;20064;-81
2021/12/02 05:02:33;;;;;;;3.80;2.38;;;5.50;99.90;;;;;;5028458;28;20054;-79
2021/12/02 05:05:31;;;;;;;5.35;2.28;;;3.30;99.90;;;;;;5030203;28;20056;-80
2021/12/02 05:08:04;;;;;;;9.02;2.60;;;3.90;99.90;;;;;;5013332;28;20065;-81
2021/12/02 05:10:33;;;;;;;6.18;2.92;;;4.80;99.90;;;;;;5015520;28;20065;-80
2021/12/02 05:13:01;;;;;;;3.75;2.38;;;3.30;99.90;;;;;;5008431;28;20042;-80
2021/12/02 05:15:46;;;;;;;;;;;;;;;;;;;;;
2021/12/02 05:18:42;;;;;;;3.90;2.42;;;4.00;99.90;;;;;;5009788;28;20133;-80
2021/12/02 05:21:12;;;;;;;3.00;1.90;;;3.30;99.90;;;;;;5009261;28;20045;-82
2021/12/02 05:23:41;;;;;;;3.10;1.67;;;3.40;99.90;;;;;;5024151;28;20041;-79
2021/12/02 05:26:10;;;;;;;8.82;2.83;;;2.30;99.90;;;;;;5024051;28;20046;-79
2021/12/02 05:28:38;;;;;;;9.98;2.78;;;3.30;99.90;;;;;;4993315;28;20060;-78
2021/12/02 05:31:06;;;;;;;3.55;2.22;;;3.40;99.90;;;;;;4974110;28;20064;-79
2021/12/02 05:33:35;;;;;;;2.88;1.90;;;3.40;99.90;;;;;;5000631;28;20050;-80
2021/12/02 05:36:04;;;;;;;5.55;2.30;;;3.50;99.90;;;;;;5027749;28;20045;-80
2021/12/02 05:41:43;;;;;;;4.00;1.90;;;4.60;99.90;;;;;;5022909;28;20065;-80
2021/12/02 05:44:41;;;;;;;5.00;2.20;;;3.60;99.90;;;;;;5024928;28;20061;-81
2021/12/02 05:47:17;;;;;;;6.25;2.72;;;3.50;99.90;;;;;;5018493;28;20042;-80
2021/12/02 05:50:10;;;;;;;5.97;2.78;;;3.50;99.90;;;;;;5002580;28;20050;-79
2021/12/02 05:52:44;;;;;;;5.28;1.67;;;3.50;99.90;;;;;;4988281;28;20046;-79
2021/12/02 05:55:19;;;;;;;4.68;2.05;;;3.70;99.90;;;;;;5020375;28;20060;-79
2021/12/02 05:58:13;;;;;;;;;;;;;;;;;;;;;
2021/12/02 06:00:59;;;;;;;3.78;1.95;;;2.10;99.90;;;;;;5013534;28;20049;-80
2021/12/02 06:03:40;;;;;;;5.85;2.58;;;3.80;99.90;;;;;;5037772;28;20058;-82
2021/12/02 06:06:41;;;;;;;4.57;2.60;;;3.60;99.90;;;;;;5022376;28;20053;-81
2021/12/02 06:09:55;;;;;;;;;;;;;;;;;;;;;
2021/12/02 06:13:19;;;;;;;5.05;1.88;;;3.80;99.90;;;;;;5010857;28;20070;-81
2021/12/02 06:16:20;;;;;;;4.78;1.77;;;3.80;99.90;;;;;;5012593;28;20060;-81
2021/12/02 06:19:06;;;;;;;2.00;1.90;;;3.00;99.90;;;;;;5009267;28;20054;-81
2021/12/02 06:22:04;;;;;;;9.63;2.00;;;3.80;99.90;;;;;;4993855;28;20046;-82
2021/12/02 06:25:05;;;;;;;4.60;3.00;;;3.80;99.90;;;;;;5031788;28;20045;-81
2021/12/02 06:27:56;;;;;;;;;;;;;;;;;;;;;
2021/12/02 06:31:07;;;;;;;1.27;1.20;;;2.60;99.90;;;;;;5006414;28;20051;-81
2021/12/02 06:33:37;;;;;;;4.00;1.90;;;3.50;99.90;;;;;;5020124;28;20066;-80
2021/12/02 06:36:41;;;;;;;;;;;;;;;;;;;;;
2021/12/02 06:39:37;;;;;;;;;;;;;;;;;;;;;
2021/12/02 06:43:00;;;;;;;;;;;;;;;;;;;;;
2021/12/02 06:45:47;;;;;;;3.05;1.70;;;3.30;99.90;;;;;;5029391;28;20061;-80
2021/12/02 06:48:28;;;;;;;4.78;2.42;;;3.90;99.90;;;;;;5012492;28;20060;-83
2021/12/02 06:51:16;;;;;;;;;;;;;;;;;;;;;
2021/12/02 06:54:38;;;;;;;1.80;1.60;;;3.10;99.90;;;;;;4982917;28;20042;-81
2021/12/02 06:57:39;;;;;;;6.35;2.25;;;3.10;99.90;;;;;;4988527;28;20054;-83
2021/12/02 07:00:39;;;;;;;1.77;1.67;;;3.20;99.90;;;;;;5010705;28;20499;-81
2021/12/02 07:03:14;;;;;;;11.10;2.80;;;3.00;99.90;;;;;;4988155;28;20041;-82
2021/12/02 07:06:43;;;;;;;;;;;;;;;;;;;;;
2021/12/02 07:12:30;;;;;;;2.58;2.38;;;3.00;99.90;;;;;;5013383;28;20045;-80
2021/12/02 07:15:56;;;;;;;8.65;2.92;;;2.50;99.90;;;;;;5018898;28;20042;-81
2021/12/02 07:19:17;;;;;;;6.60;2.15;;;2.70;99.90;;;;;;4926690;29;20486;-82
2021/12/02 07:21:56;;;;;;;2.80;2.15;;;2.50;99.90;;;;;;4939728;29;20059;-81
2021/12/02 07:25:12;;;;;;;4.60;2.03;;;2.40;99.90;;;;;;4925121;29;20052;-81
2021/12/02 07:28:14;;;;;;;5.80;2.60;;;2.50;99.90;;;;;;4946057;28;20055;-80
2021/12/02 07:31:13;;;;;;;9.40;2.85;;;2.10;99.90;;;;;;4934256;28;20047;-83
2021/12/02 07:33:43;;;;;;;2.88;2.65;;;2.10;99.90;;;;;;5019390;28;20071;-80
2021/12/02 07:36:15;;;;;;;3.43;2.40;;;2.40;99.90;;;;;;5011935;28;20037;-82
2021/12/02 07:38:47;;;;;;;8.07;3.08;;;4.20;99.90;;;;;;5027304;28;20057;-80
2021/12/02 07:41:16;;;;;;;6.63;2.83;;;2.30;99.90;;;;;;5012305;28;20052;-81
2021/12/02 07:43:45;;;;;;;4.20;1.85;;;0.90;99.90;;;;;;5004781;28;20056;-80
2021/12/02 07:46:14;;;;;;;12.18;3.83;;;2.40;99.90;;;;;;5010737;28;20050;-80
2021/12/02 07:48:42;;;;;;;2.78;2.33;;;2.20;99.90;;;;;;4991929;28;20046;-77
2021/12/02 07:51:16;;;;;;;10.25;4.07;;;2.20;99.90;;;;;;5021168;28;20060;-78
2021/12/02 07:53:47;;;;;;;3.13;2.08;;;3.90;99.90;;;;;;5008563;28;20045;-77
2021/12/02 07:56:20;;;;;;;4.25;2.47;;;2.20;99.90;;;;;;5006950;28;20042;-80
2021/12/02 07:58:52;;;;;;;6.95;2.45;;;3.70;99.90;;;;;;5013994;28;20053;-80
2021/12/02 08:01:20;;;;;;;6.07;2.42;;;2.10;99.90;;;;;;5001374;28;20053;-80
2021/12/02 08:03:51;;;;;;;12.80;3.38;;;3.10;99.90;;;;;;5019205;28;20052;-78
2021/12/02 08:06:19;;;;;;;6.95;2.67;;;2.10;99.90;;;;;;5021307;28;20057;-79
2021/12/02 08:08:47;;;;;;;6.80;4.57;;;2.40;99.90;;;;;;5005767;28;20053;-80
2021/12/02 08:11:16;;;;;;;8.02;2.35;;;3.10;99.90;;;;;;5021238;28;20065;-77
2021/12/02 08:13:44;;;;;;;6.95;3.00;;;2.00;99.90;;;;;;5004263;28;20057;-78
2021/12/02 08:16:12;;;;;;;7.90;2.58;;;2.10;99.90;;;;;;5000905;28;20054;-79
2021/12/02 08:18:40;;;;;;;13.27;4.80;;;1.90;99.90;;;;;;5007885;28;20068;-78
2021/12/02 08:21:08;;;;;;;5.97;2.33;;;1.90;99.90;;;;;;5025102;28;20053;-80
2021/12/02 08:23:38;;;;;;;9.50;2.95;;;1.90;99.90;;;;;;5024147;28;20061;-79
2021/12/02 08:26:07;;;;;;;15.77;3.47;;;2.00;99.90;;;;;;5001873;28;20218;-80
2021/12/02 08:28:36;;;;;;;12.48;5.13;;;4.40;99.90;;;;;;4987258;28;20097;-79
2021/12/02 08:31:04;;;;;;;11.05;4.22;;;2.00;99.90;;;;;;5003225;28;20051;-79
2021/12/02 08:33:32;;;;;;;12.98;3.17;;;3.20;99.90;;;;;;5003658;28;20149;-81
2021/12/02 08:36:00;;;;;;;7.80;3.50;;;2.10;99.90;;;;;;5020371;28;20092;-79
2021/12/02 08:38:32;;;;;;;10.95;3.60;;;2.10;99.90;;;;;;5022366;28;20061;-78
2021/12/02 08:41:02;;;;;;;11.00;3.55;;;3.20;99.90;;;;;;4994584;28;20508;-80
2021/12/02 08:43:31;;;;;;;4.18;2.95;;;2.10;99.90;;;;;;5021481;28;20041;-81
2021/12/02 08:45:59;;;;;;;5.97;3.60;;;2.90;99.90;;;;;;5008799;28;20050;-79
2021/12/02 08:48:30;;;;;;;8.68;3.47;;;2.20;99.90;;;;;;5005408;28;20062;-79
2021/12/02 08:50:58;;;;;;;;;;;3.70;99.90;;;;;;4990050;28;20069;-80
2021/12/02 08:53:27;;;;;;;8.80;3.72;;;2.20;99.90;;;;;;4986493;28;19929;-78
2021/12/02 08:56:02;;;;;;;6.13;3.33;;;3.20;99.90;;;;;;5168208;27;20423;-80
2021/12/02 08:58:31;;;;;;;9.35;3.97;;;2.30;99.90;;;;;;5115371;27;20048;-79
2021/12/02 09:01:00;;;;;;;12.40;5.47;;;2.30;99.90;;;;;;5127889;27;20051;-81
2021/12/02 09:03:29;;;;;;;4.93;3.35;;;3.70;99.90;;;;;;5145917;27;20423;-82
2021/12/02 09:06:00;;;;;;;7.28;3.55;;;3.90;99.90;;;;;;5141023;27;20043;-80
2021/12/02 09:08:33;;;;;;;11.10;3.80;;;3.30;99.90;;;;;;5129034;27;20062;-79
2021/12/02 09:11:11;;;;;;;6.65;3.58;;;2.30;99.90;;;;;;5122074;28;20066;-79
2021/12/02 09:13:42;;;;;;;6.38;3.50;;;2.90;99.90;;;;;;5125301;28;20073;-79
2021/12/02 09:16:18;;;;;;;8.88;4.03;;;3.70;99.90;;;;;;5126124;28;20044;-80
2021/12/02 09:18:57;;;;;;;13.73;4.47;;;3.50;99.90;;;;;;5125744;28;20613;-78
2021/12/02 09:21:26;;;;;;;14.23;4.10;;;3.00;99.90;;;;;;5123069;28;20381;-79
2021/12/02 09:23:55;;;;;;;11.25;4.25;;;2.60;99.90;;;;;;5108605;28;20057;-79
2021/12/02 09:26:23;;;;;;;7.80;3.03;;;2.70;99.90;;;;;;5127754;28;20047;-77
2021/12/02 09:28:56;;;;;;;6.47;3.33;;;2.70;99.90;;;;;;5131835;28;20055;-78
2021/12/02 09:31:25;;;;;;;16.83;4.28;;;4.90;99.90;;;;;;5124467;28;20035;-78
2021/12/02 09:33:53;;;;;;;4.78;2.65;;;2.60;99.90;;;;;;5124671;28;20054;-78
2021/12/02 09:36:21;;;;;;;4.10;2.53;;;2.90;99.90;;;;;;5119915;28;20058;-79
2021/12/02 09:38:50;;;;;;;4.70;2.60;;;3.00;99.90;;;;;;5105481;28;20046;-77
2021/12/02 09:41:18;;;;;;;2.38;1.88;;;3.20;99.90;;;;;;5124896;28;20062;-77
2021/12/02 09:43:49;;;;;;;2.97;2.75;;;4.30;99.90;;;;;;5122626;28;20090;-78
2021/12/02 09:46:17;;;;;;;6.57;2.85;;;5.10;99.90;;;;;;5101512;28;20048;-77
2021/12/02 09:48:49;;;;;;;6.00;2.88;;;2.90;99.90;;;;;;5118566;28;20401;-78
2021/12/02 09:51:25;;;;;;;2.53;2.00;;;4.90;99.90;;;;;;5118320;28;20606;-80
2021/12/02 09:54:19;;;;;;;4.88;2.85;;;3.40;99.90;;;;;;5119704;28;20048;-76
2021/12/02 09:56:50;;;;;;;12.85;2.70;;;3.30;99.90;;;;;;5119980;28;20058;-78
2021/12/02 09:59:30;;;;;;;2.38;2.05;;;5.30;99.90;;;;;;5107958;28;20040;-78
2021/12/02 10:02:04;;;;;;;3.97;2.05;;;3.50;99.90;;;;;;5110166;28;20039;-77
2021/12/02 10:04:39;;;;;;;4.68;2.50;;;3.50;99.90;;;;;;5127545;28;20035;-78
2021/12/02 10:07:23;;;;;;;8.85;2.67;;;3.50;99.90;;;;;;5112382;28;20050;-78
2021/12/02 10:10:06;;;;;;;3.88;1.90;;;3.60;99.90;;;;;;5092017;28;20087;-78
2021/12/02 10:12:37;;;;;;;6.32;2.20;;;3.60;99.90;;;;;;5106237;28;20126;-77
2021/12/02 10:15:12;;;;;;;3.78;2.35;;;2.00;99.90;;;;;;5095363;28;20044;-77
2021/12/02 10:17:49;;;;;;;8.38;2.10;;;3.70;99.90;;;;;;5108654;28;20052;-78
2021/12/02 10:20:36;;;;;;;6.90;2.58;;;3.70;99.90;;;;;;5084026;28;20052;-79
2021/12/02 10:23:21;;;;;;;6.90;2.85;;;3.70;99.90;;;;;;5102794;28;20048;-79
2021/12/02 10:25:58;;;;;;;3.95;2.47;;;3.70;99.90;;;;;;5101848;28;20060;-78
2021/12/02 10:28:33;;;;;;;6.95;2.10;;;3.70;99.90;;;;;;5105195;28;20046;-77
2021/12/02 10:31:04;;;;;;;3.30;1.95;;;3.70;99.90;;;;;;5112170;28;20047;-77
2021/12/02 10:33:43;;;;;;;6.53;3.30;;;5.20;99.90;;;;;;5105986;28;20047;-79
2021/12/02 10:36:47;;;;;;;4.97;2.22;;;5.30;99.90;;;;;;5092865;28;20158;-79
2021/12/02 10:39:52;;;;;;;8.88;2.65;;;3.90;99.90;;;;;;5106248;28;20044;-81
2021/12/02 10:42:23;;;;;;;7.25;2.47;;;3.90;99.90;;;;;;5112834;28;20078;-79
2021/12/02 10:44:54;;;;;;;5.72;1.98;;;4.30;99.90;;;;;;5086599;28;20063;-77
2021/12/02 10:47:23;;;;;;;9.38;2.55;;;5.50;99.90;;;;;;5102253;28;20052;-77
2021/12/02 10:49:57;;;;;;;4.93;2.05;;;3.90;99.90;;;;;;5087570;28;20055;-79
2021/12/02 10:52:28;;;;;;;4.22;2.30;;;4.00;99.90;;;;;;5109223;28;20055;-78
2021/12/02 10:55:01;;;;;;;7.03;2.67;;;4.00;99.90;;;;;;5105960;28;20048;-78
2021/12/02 10:57:31;;;;;;;8.05;1.90;;;4.00;99.90;;;;;;5112486;28;20366;-79
2021/12/02 11:00:12;;;;;;;4.18;2.33;;;4.10;99.90;;;;;;5110985;28;20055;-79
2021/12/02 11:02:46;;;;;;;8.13;3.55;;;4.10;99.90;;;;;;5090738;28;20047;-79
2021/12/02 11:05:26;;;;;;;9.15;2.28;;;4.10;99.90;;;;;;5104220;28;20044;-79
2021/12/02 11:07:57;;;;;;;5.53;2.20;;;4.10;99.90;;;;;;5106162;28;20062;-78
2021/12/02 11:10:26;;;;;;;6.80;2.22;;;4.10;99.90;;;;;;5085703;28;20062;-80
2021/12/02 11:12:56;;;;;;;7.22;2.42;;;6.00;99.90;;;;;;5103180;28;20044;-79
2021/12/02 11:15:31;;;;;;;8.30;4.63;;;4.20;99.90;;;;;;5111005;28;20059;-79
2021/12/02 11:18:03;;;;;;;6.47;5.63;;;4.20;99.90;;;;;;5112983;28;20048;-79
2021/12/02 11:20:43;;;;;;;3.47;1.55;;;4.20;99.90;;;;;;5100608;28;20052;-80
2021/12/02 11:23:18;;;;;;;5.72;3.20;;;5.30;99.90;;;;;;5083481;28;20047;-78
2021/12/02 11:25:49;;;;;;;3.60;1.90;;;4.30;99.90;;;;;;5099738;28;20044;-78
2021/12/02 11:28:18;;;;;;;7.38;1.90;;;4.80;99.90;;;;;;5101360;28;20048;-78
2021/12/02 11:30:46;;;;;;;3.00;2.20;;;4.50;99.90;;;;;;5101946;28;20051;-79
2021/12/02 11:33:36;;;;;;;2.70;2.13;;;4.40;99.90;;;;;;5100434;28;20044;-79
2021/12/02 11:36:07;;;;;;;10.63;2.95;;;4.20;99.90;;;;;;5102223;28;20300;-77
2021/12/02 11:38:35;;;;;;;5.10;2.67;;;4.50;99.90;;;;;;5101803;28;20055;-78
2021/12/02 11:41:07;;;;;;;9.73;2.15;;;4.50;99.90;;;;;;5101355;28;20048;-77
2021/12/02 11:43:37;;;;;;;13.57;2.20;;;4.60;99.90;;;;;;5100815;28;20044;-76
2021/12/02 11:46:10;;;;;;;4.18;2.00;;;4.60;99.90;;;;;;5100662;28;20532;-79
2021/12/02 11:48:43;;;;;;;8.48;2.15;;;4.60;99.90;;;;;;5091069;28;20051;-78
2021/12/02 11:51:14;;;;;;;7.50;2.30;;;4.60;99.90;;;;;;5064857;28;20052;-77
2021/12/02 11:53:42;;;;;;;;;;;4.70;99.90;;;;;;5084397;28;20047;-80
2021/12/02 11:56:17;;;;;;;11.38;2.28;;;4.70;99.90;;;;;;5102198;28;19924;-78
2021/12/02 11:58:46;;;;;;;2.47;1.88;;;4.70;99.90;;;;;;5052427;28;20063;-78
2021/12/02 12:01:19;;;;;;;8.57;3.50;;;4.80;99.90;;;;;;5099446;28;20056;-76
2021/12/02 12:03:51;;;;;;;6.20;2.92;;;4.90;99.90;;;;;;5083949;28;20054;-77
2021/12/02 12:06:22;;;;;;;7.45;2.63;;;4.90;99.90;;;;;;5083115;28;20058;-78
2021/12/02 12:08:52;;;;;;;13.55;3.95;;;4.90;99.90;;;;;;5083612;28;20044;-78
2021/12/02 12:11:34;;;;;;;4.72;2.45;;;5.00;99.90;;;;;;5099412;28;20048;-78
2021/12/02 12:14:12;;;;;;;8.20;3.53;;;5.30;99.90;;;;;;5103169;28;20056;-78
2021/12/02 12:16:51;;;;;;;2.08;1.67;;;5.00;99.90;;;;;;5083034;28;20067;-78
2021/12/02 12:19:20;;;;;;;11.57;2.70;;;5.00;99.90;;;;;;5083844;28;20830;-77
2021/12/02 12:22:06;;;;;;;2.88;1.65;;;5.00;99.90;;;;;;5083093;28;20056;-80
2021/12/02 12:24:45;;;;;;;3.88;2.30;;;5.10;99.90;;;;;;5101916;28;20052;-78
2021/12/02 12:27:16;;;;;;;2.38;1.92;;;5.10;99.90;;;;;;5081103;28;20064;-77
2021/12/02 12:30:09;;;;;;;3.22;1.98;;;5.10;99.90;;;;;;5079724;28;20064;-79
2021/12/02 12:36:13;;;;;;;5.53;2.20;;;5.20;99.90;;;;;;5081397;28;20045;-76
2021/12/02 12:38:40;;;;;;;8.77;2.70;;;5.30;99.90;;;;;;5080206;28;20052;-78
2021/12/02 12:41:14;;;;;;;6.40;2.38;;;5.10;99.90;;;;;;5097890;28;20036;-77
2021/12/02 12:43:51;;;;;;;9.73;2.40;;;5.20;99.90;;;;;;5082952;28;20493;-79
2021/12/02 12:46:30;;;;;;;6.00;1.85;;;5.20;99.90;;;;;;5100753;28;20040;-77
2021/12/02 12:49:18;;;;;;;4.05;1.92;;;5.30;99.90;;;;;;5084783;28;20058;-77
2021/12/02 12:51:55;;;;;;;7.72;2.55;;;6.30;99.90;;;;;;5083229;28;20048;-78
2021/12/02 12:54:23;;;;;;;4.03;2.10;;;6.40;99.90;;;;;;5083309;28;20063;-78
2021/12/02 12:57:05;;;;;;;6.25;2.08;;;5.50;99.90;;;;;;5083480;28;20052;-79
2021/12/02 12:59:50;;;;;;;10.40;3.53;;;5.70;99.90;;;;;;5102078;28;20048;-81
2021/12/02 13:02:25;;;;;;;9.60;2.75;;;5.40;99.90;;;;;;5094237;28;20051;-81
2021/12/02 13:04:58;;;;;;;12.55;3.55;;;5.40;99.90;;;;;;5101463;28;20044;-82
2021/12/02 13:07:43;;;;;;;13.15;2.10;;;5.80;99.90;;;;;;5079846;28;20048;-80
2021/12/02 13:10:29;;;;;;;6.70;2.10;;;6.00;99.90;;;;;;5085470;28;20040;-82
2021/12/02 13:12:58;;;;;;;8.02;2.00;;;5.50;99.90;;;;;;5064024;28;20064;-81
2021/12/02 13:15:28;;;;;;;3.72;1.98;;;5.60;99.90;;;;;;5100676;28;20052;-81
2021/12/02 13:18:02;;;;;;;5.72;2.00;;;5.60;99.90;;;;;;5105973;28;20056;-79
2021/12/02 13:20:40;;;;;;;3.20;2.20;;;6.70;99.90;;;;;;5087660;28;20044;-79
2021/12/02 13:23:17;;;;;;;4.15;2.22;;;5.60;99.90;;;;;;5077263;28;20048;-79
2021/12/02 13:26:05;;;;;;;6.57;2.10;;;6.10;99.90;;;;;;5084493;28;20052;-79
2021/12/02 13:28:41;;;;;;;14.45;2.80;;;5.70;99.90;;;;;;5101976;28;20043;-78
2021/12/02 13:31:14;;;;;;;6.65;3.10;;;5.70;99.90;;;;;;5084076;28;20036;-79
2021/12/02 13:34:02;;;;;;;4.97;2.50;;;5.70;99.90;;;;;;5104342;28;20040;-78
2021/12/02 13:36:47;;;;;;;12.10;2.05;;;5.70;99.90;;;;;;5111570;28;20056;-79
2021/12/02 13:39:27;;;;;;;6.60;2.70;;;6.30;99.90;;;;;;5110819;28;20170;-80
2021/12/02 13:41:57;;;;;;;8.45;2.20;;;5.70;99.90;;;;;;5104747;28;20055;-80
2021/12/02 13:44:53;;;;;;;10.15;2.80;;;5.70;99.90;;;;;;5080539;28;20049;-79
2021/12/02 13:47:40;;;;;;;4.55;2.20;;;7.50;99.90;;;;;;5068039;28;20063;-78
2021/12/02 13:50:18;;;;;;;10.85;2.92;;;5.70;99.90;;;;;;5083751;28;20045;-79
2021/12/02 13:52:52;;;;;;;16.30;2.72;;;7.40;99.90;;;;;;5084801;28;20366;-78
2021/12/02 13:55:35;;;;;;;8.10;2.50;;;5.80;99.90;;;;;;5104394;28;20490;-79
2021/12/02 13:58:29;;;;;;;3.35;1.60;;;5.80;99.90;;;;;;5085852;28;20067;-80
2021/12/02 14:01:01;;;;;;;5.07;2.10;;;7.40;99.90;;;;;;5105593;28;20050;-80
2021/12/02 14:03:29;;;;;;;8.23;2.05;;;5.80;99.90;;;;;;5089189;28;20052;-79
2021/12/02 14:06:04;;;;;;;16.08;3.13;;;5.70;99.90;;;;;;5105649;28;20052;-79
2021/12/02 14:08:33;;;;;;;4.85;2.15;;;5.80;99.90;;;;;;5102687;28;20064;-78
2021/12/02 14:11:01;;;;;;;8.65;2.20;;;5.80;99.90;;;;;;5064319;28;20056;-78
2021/12/02 14:13:33;;;;;;;4.28;2.03;;;5.80;99.90;;;;;;5081667;28;20485;-79
2021/12/02 14:16:06;;;;;;;6.70;2.80;;;5.70;99.90;;;;;;5101658;28;20444;-78
2021/12/02 14:18:35;;;;;;;4.07;2.40;;;5.70;99.90;;;;;;5103441;28;20055;-79
2021/12/02 14:21:10;;;;;;;14.52;2.67;;;5.70;99.90;;;;;;5101589;28;20051;-81
2021/12/02 14:23:41;;;;;;;4.50;1.95;;;5.70;99.90;;;;;;5101970;28;20055;-80
2021/12/02 14:26:29;;;;;;;13.05;2.55;;;5.70;99.90;;;;;;5086686;28;20122;-78
2021/12/02 14:28:59;;;;;;;15.13;3.97;;;5.70;99.90;;;;;;5085324;28;20047;-78
2021/12/02 14:31:36;;;;;;;7.22;2.72;;;6.50;99.90;;;;;;5091028;28;20048;-80
2021/12/02 14:34:08;;;;;;;3.45;2.10;;;5.70;99.90;;;;;;5109742;28;20044;-77